sensor_id;sensor_type;location;lat;lon;timestamp;P1;durP1;ratioP1;P2;durP2;ratioP2
24761;SDS011;12865;51.934;10.330;2023-02-28T00:00:03;4.13;;;3.63;;
24761;SDS011;12865;51.934;10.330;2023-02-28T00:02:56;5.32;;;3.92;;
24761;SDS011;12865;51.934;10.330;2023-02-28T00:05:42;4.13;;;3.35;;
24761;SDS011;12865;51.934;10.330;2023-02-28T00:08:28;3.22;;;2.90;;
24761;SDS011;12865;51.934;10.330;2023-02-28T00:11:14;4.30;;;3.10;;
24761;SDS011;12865;51.934;10.330;2023-02-28T00:14:01;3.22;;;2.92;;
24761;SDS011;12865;51.934;10.330;2023-02-28T00:16:46;3.38;;;2.85;;
24761;SDS011;12865;51.934;10.330;2023-02-28T00:19:32;4.22;;;3.00;;
24761;SDS011;12865;51.934;10.330;2023-02-28T00:22:18;4.93;;;3.40;;
24761;SDS011;12865;51.934;10.330;2023-02-28T00:25:06;4.40;;;3.25;;
24761;SDS011;12865;51.934;10.330;2023-02-28T00:27:52;4.60;;;3.10;;
24761;SDS011;12865;51.934;10.330;2023-02-28T00:30:38;5.32;;;3.15;;
24761;SDS011;12865;51.934;10.330;2023-02-28T00:33:24;5.85;;;3.20;;
24761;SDS011;12865;51.934;10.330;2023-02-28T00:36:10;3.58;;;3.00;;
24761;SDS011;12865;51.934;10.330;2023-02-28T00:38:56;4.30;;;2.90;;
24761;SDS011;12865;51.934;10.330;2023-02-28T00:41:42;4.75;;;3.03;;
24761;SDS011;12865;51.934;10.330;2023-02-28T00:44:28;4.22;;;3.13;;
24761;SDS011;12865;51.934;10.330;2023-02-28T00:47:14;5.32;;;2.85;;
24761;SDS011;12865;51.934;10.330;2023-02-28T00:50:00;4.07;;;3.10;;
24761;SDS011;12865;51.934;10.330;2023-02-28T00:52:46;4.22;;;2.70;;
24761;SDS011;12865;51.934;10.330;2023-02-28T00:55:32;3.63;;;3.00;;
24761;SDS011;12865;51.934;10.330;2023-02-28T00:58:18;3.30;;;3.00;;
24761;SDS011;12865;51.934;10.330;2023-02-28T01:01:03;3.67;;;2.30;;
24761;SDS011;12865;51.934;10.330;2023-02-28T01:03:49;5.18;;;3.38;;
24761;SDS011;12865;51.934;10.330;2023-02-28T01:06:35;3.30;;;2.50;;
24761;SDS011;12865;51.934;10.330;2023-02-28T01:09:21;6.63;;;2.65;;
24761;SDS011;12865;51.934;10.330;2023-02-28T01:12:07;3.30;;;2.47;;
24761;SDS011;12865;51.934;10.330;2023-02-28T01:14:53;3.20;;;2.17;;
24761;SDS011;12865;51.934;10.330;2023-02-28T01:17:39;4.35;;;2.90;;
24761;SDS011;12865;51.934;10.330;2023-02-28T01:20:25;2.80;;;2.40;;
24761;SDS011;12865;51.934;10.330;2023-02-28T01:23:10;2.55;;;2.22;;
24761;SDS011;12865;51.934;10.330;2023-02-28T01:25:56;4.20;;;2.10;;
24761;SDS011;12865;51.934;10.330;2023-02-28T01:28:42;2.67;;;2.15;;
24761;SDS011;12865;51.934;10.330;2023-02-28T01:31:27;3.10;;;2.60;;
24761;SDS011;12865;51.934;10.330;2023-02-28T01:34:13;4.45;;;2.30;;
24761;SDS011;12865;51.934;10.330;2023-02-28T01:36:59;3.58;;;2.40;;
24761;SDS011;12865;51.934;10.330;2023-02-28T01:39:44;2.80;;;2.22;;
24761;SDS011;12865;51.934;10.330;2023-02-28T01:42:30;3.05;;;2.20;;
24761;SDS011;12865;51.934;10.330;2023-02-28T01:48:12;2.70;;;1.90;;
24761;SDS011;12865;51.934;10.330;2023-02-28T01:50:59;3.17;;;2.17;;
24761;SDS011;12865;51.934;10.330;2023-02-28T01:53:58;4.30;;;1.92;;
24761;SDS011;12865;51.934;10.330;2023-02-28T01:56:50;3.40;;;2.00;;
24761;SDS011;12865;51.934;10.330;2023-02-28T01:59:52;2.35;;;1.95;;
24761;SDS011;12865;51.934;10.330;2023-02-28T02:02:45;1.92;;;1.77;;
24761;SDS011;12865;51.934;10.330;2023-02-28T02:05:34;3.60;;;2.00;;
24761;SDS011;12865;51.934;10.330;2023-02-28T02:08:23;3.33;;;1.88;;
24761;SDS011;12865;51.934;10.330;2023-02-28T02:11:11;1.88;;;1.65;;
24761;SDS011;12865;51.934;10.330;2023-02-28T02:17:25;1.80;;;1.60;;
24761;SDS011;12865;51.934;10.330;2023-02-28T02:30:01;3.63;;;1.90;;
24761;SDS011;12865;51.934;10.330;2023-02-28T02:33:06;2.20;;;1.77;;
24761;SDS011;12865;51.934;10.330;2023-02-28T02:41:53;1.98;;;1.67;;
24761;SDS011;12865;51.934;10.330;2023-02-28T02:44:40;1.58;;;1.30;;
24761;SDS011;12865;51.934;10.330;2023-02-28T02:47:33;1.88;;;1.75;;
24761;SDS011;12865;51.934;10.330;2023-02-28T02:50:23;2.20;;;2.00;;
24761;SDS011;12865;51.934;10.330;2023-02-28T02:53:14;3.75;;;1.77;;
24761;SDS011;12865;51.934;10.330;2023-02-28T02:56:05;4.07;;;1.95;;
24761;SDS011;12865;51.934;10.330;2023-02-28T02:58:53;1.75;;;1.65;;
24761;SDS011;12865;51.934;10.330;2023-02-28T03:01:42;1.58;;;1.42;;
24761;SDS011;12865;51.934;10.330;2023-02-28T03:04:29;1.90;;;1.70;;
24761;SDS011;12865;51.934;10.330;2023-02-28T03:07:18;3.35;;;1.42;;
24761;SDS011;12865;51.934;10.330;2023-02-28T03:10:25;2.88;;;1.80;;
24761;SDS011;12865;51.934;10.330;2023-02-28T03:13:20;3.38;;;1.75;;
24761;SDS011;12865;51.934;10.330;2023-02-28T03:16:28;3.78;;;1.40;;
24761;SDS011;12865;51.934;10.330;2023-02-28T03:19:54;2.17;;;1.40;;
24761;SDS011;12865;51.934;10.330;2023-02-28T03:26:14;1.85;;;1.73;;
24761;SDS011;12865;51.934;10.330;2023-02-28T03:35:17;2.25;;;1.38;;
24761;SDS011;12865;51.934;10.330;2023-02-28T03:44:25;3.40;;;1.88;;
24761;SDS011;12865;51.934;10.330;2023-02-28T03:47:18;2.53;;;1.40;;
24761;SDS011;12865;51.934;10.330;2023-02-28T03:50:19;1.40;;;1.30;;
24761;SDS011;12865;51.934;10.330;2023-02-28T03:56:03;2.17;;;1.58;;
24761;SDS011;12865;51.934;10.330;2023-02-28T04:01:50;1.75;;;1.60;;
24761;SDS011;12865;51.934;10.330;2023-02-28T04:04:37;2.33;;;1.80;;
24761;SDS011;12865;51.934;10.330;2023-02-28T04:07:22;2.35;;;1.80;;
24761;SDS011;12865;51.934;10.330;2023-02-28T04:10:08;3.10;;;1.88;;
24761;SDS011;12865;51.934;10.330;2023-02-28T04:12:54;1.58;;;1.48;;
24761;SDS011;12865;51.934;10.330;2023-02-28T04:15:40;2.40;;;1.70;;
24761;SDS011;12865;51.934;10.330;2023-02-28T04:18:26;3.75;;;1.80;;
24761;SDS011;12865;51.934;10.330;2023-02-28T04:21:12;2.72;;;1.52;;
24761;SDS011;12865;51.934;10.330;2023-02-28T04:23:58;2.95;;;1.67;;
24761;SDS011;12865;51.934;10.330;2023-02-28T04:26:46;1.55;;;1.45;;
24761;SDS011;12865;51.934;10.330;2023-02-28T04:29:34;1.65;;;1.52;;
24761;SDS011;12865;51.934;10.330;2023-02-28T04:32:19;1.42;;;1.30;;
24761;SDS011;12865;51.934;10.330;2023-02-28T04:35:05;1.67;;;1.58;;
24761;SDS011;12865;51.934;10.330;2023-02-28T04:37:51;3.50;;;1.80;;
24761;SDS011;12865;51.934;10.330;2023-02-28T04:40:37;2.25;;;2.05;;
24761;SDS011;12865;51.934;10.330;2023-02-28T04:43:23;3.65;;;1.77;;
24761;SDS011;12865;51.934;10.330;2023-02-28T04:46:08;3.70;;;1.80;;
24761;SDS011;12865;51.934;10.330;2023-02-28T04:48:55;3.28;;;1.83;;
24761;SDS011;12865;51.934;10.330;2023-02-28T04:51:41;2.30;;;1.80;;
24761;SDS011;12865;51.934;10.330;2023-02-28T04:54:27;1.90;;;1.65;;
24761;SDS011;12865;51.934;10.330;2023-02-28T04:57:13;1.70;;;1.48;;
24761;SDS011;12865;51.934;10.330;2023-02-28T04:59:59;1.83;;;1.60;;
24761;SDS011;12865;51.934;10.330;2023-02-28T05:02:45;2.42;;;1.58;;
24761;SDS011;12865;51.934;10.330;2023-02-28T05:05:30;2.15;;;1.70;;
24761;SDS011;12865;51.934;10.330;2023-02-28T05:08:16;2.30;;;1.75;;
24761;SDS011;12865;51.934;10.330;2023-02-28T05:11:02;1.77;;;1.67;;
24761;SDS011;12865;51.934;10.330;2023-02-28T05:13:51;4.03;;;2.08;;
24761;SDS011;12865;51.934;10.330;2023-02-28T05:16:37;1.52;;;1.42;;
24761;SDS011;12865;51.934;10.330;2023-02-28T05:19:23;1.83;;;1.65;;
24761;SDS011;12865;51.934;10.330;2023-02-28T05:22:12;2.55;;;2.00;;
24761;SDS011;12865;51.934;10.330;2023-02-28T05:25:00;2.15;;;1.40;;
24761;SDS011;12865;51.934;10.330;2023-02-28T05:27:46;2.83;;;1.90;;
24761;SDS011;12865;51.934;10.330;2023-02-28T05:30:32;6.78;;;3.28;;
24761;SDS011;12865;51.934;10.330;2023-02-28T05:33:18;12.65;;;7.72;;
24761;SDS011;12865;51.934;10.330;2023-02-28T05:36:03;8.82;;;6.00;;
24761;SDS011;12865;51.934;10.330;2023-02-28T05:38:50;6.93;;;4.60;;
24761;SDS011;12865;51.934;10.330;2023-02-28T05:41:36;6.40;;;5.03;;
24761;SDS011;12865;51.934;10.330;2023-02-28T05:44:22;4.90;;;3.13;;
24761;SDS011;12865;51.934;10.330;2023-02-28T05:47:07;2.55;;;2.05;;
24761;SDS011;12865;51.934;10.330;2023-02-28T05:49:53;3.08;;;2.50;;
24761;SDS011;12865;51.934;10.330;2023-02-28T05:52:39;2.72;;;2.50;;
24761;SDS011;12865;51.934;10.330;2023-02-28T05:55:24;4.57;;;3.60;;
24761;SDS011;12865;51.934;10.330;2023-02-28T05:58:10;5.57;;;4.68;;
24761;SDS011;12865;51.934;10.330;2023-02-28T06:00:56;4.60;;;3.85;;
24761;SDS011;12865;51.934;10.330;2023-02-28T06:03:43;3.25;;;2.95;;
24761;SDS011;12865;51.934;10.330;2023-02-28T06:06:28;3.20;;;2.58;;
24761;SDS011;12865;51.934;10.330;2023-02-28T06:09:19;5.78;;;2.80;;
24761;SDS011;12865;51.934;10.330;2023-02-28T06:12:06;2.75;;;2.08;;
24761;SDS011;12865;51.934;10.330;2023-02-28T06:14:52;4.20;;;2.38;;
24761;SDS011;12865;51.934;10.330;2023-02-28T06:17:38;3.00;;;2.22;;
24761;SDS011;12865;51.934;10.330;2023-02-28T06:20:24;3.75;;;2.00;;
24761;SDS011;12865;51.934;10.330;2023-02-28T06:23:14;3.65;;;2.30;;
24761;SDS011;12865;51.934;10.330;2023-02-28T06:25:59;3.35;;;2.22;;
24761;SDS011;12865;51.934;10.330;2023-02-28T06:28:45;3.40;;;1.85;;
24761;SDS011;12865;51.934;10.330;2023-02-28T06:31:31;2.65;;;2.33;;
24761;SDS011;12865;51.934;10.330;2023-02-28T06:34:17;2.92;;;1.95;;
24761;SDS011;12865;51.934;10.330;2023-02-28T06:37:03;4.65;;;2.38;;
24761;SDS011;12865;51.934;10.330;2023-02-28T06:39:48;3.72;;;2.28;;
24761;SDS011;12865;51.934;10.330;2023-02-28T06:42:34;5.32;;;2.10;;
24761;SDS011;12865;51.934;10.330;2023-02-28T06:45:20;2.97;;;2.40;;
24761;SDS011;12865;51.934;10.330;2023-02-28T06:48:05;2.58;;;1.95;;
24761;SDS011;12865;51.934;10.330;2023-02-28T06:50:51;3.85;;;3.22;;
24761;SDS011;12865;51.934;10.330;2023-02-28T06:53:37;5.20;;;2.92;;
24761;SDS011;12865;51.934;10.330;2023-02-28T06:56:23;3.95;;;3.65;;
24761;SDS011;12865;51.934;10.330;2023-02-28T06:59:09;5.78;;;4.30;;
24761;SDS011;12865;51.934;10.330;2023-02-28T07:01:55;3.92;;;2.90;;
24761;SDS011;12865;51.934;10.330;2023-02-28T07:04:40;3.15;;;2.20;;
24761;SDS011;12865;51.934;10.330;2023-02-28T07:07:29;3.13;;;2.55;;
24761;SDS011;12865;51.934;10.330;2023-02-28T07:10:15;4.80;;;2.58;;
24761;SDS011;12865;51.934;10.330;2023-02-28T07:13:02;8.90;;;3.20;;
24761;SDS011;12865;51.934;10.330;2023-02-28T07:16:02;4.22;;;2.90;;
24761;SDS011;12865;51.934;10.330;2023-02-28T07:18:52;5.60;;;3.22;;
24761;SDS011;12865;51.934;10.330;2023-02-28T07:21:38;3.40;;;2.20;;
24761;SDS011;12865;51.934;10.330;2023-02-28T07:24:24;5.45;;;2.90;;
24761;SDS011;12865;51.934;10.330;2023-02-28T07:27:13;5.22;;;3.67;;
24761;SDS011;12865;51.934;10.330;2023-02-28T07:30:09;4.95;;;3.47;;
24761;SDS011;12865;51.934;10.330;2023-02-28T07:32:55;5.30;;;2.70;;
24761;SDS011;12865;51.934;10.330;2023-02-28T07:35:42;5.57;;;3.05;;
24761;SDS011;12865;51.934;10.330;2023-02-28T07:38:28;3.05;;;2.60;;
24761;SDS011;12865;51.934;10.330;2023-02-28T07:41:15;3.10;;;2.80;;
24761;SDS011;12865;51.934;10.330;2023-02-28T07:44:01;5.43;;;3.10;;
24761;SDS011;12865;51.934;10.330;2023-02-28T07:46:48;6.05;;;3.58;;
24761;SDS011;12865;51.934;10.330;2023-02-28T07:49:35;4.50;;;4.10;;
24761;SDS011;12865;51.934;10.330;2023-02-28T07:52:23;4.18;;;3.40;;
24761;SDS011;12865;51.934;10.330;2023-02-28T07:55:09;5.43;;;3.30;;
24761;SDS011;12865;51.934;10.330;2023-02-28T07:57:56;3.45;;;2.88;;
24761;SDS011;12865;51.934;10.330;2023-02-28T08:00:43;5.90;;;3.72;;
24761;SDS011;12865;51.934;10.330;2023-02-28T08:03:28;6.07;;;3.22;;
24761;SDS011;12865;51.934;10.330;2023-02-28T08:06:16;4.75;;;3.13;;
24761;SDS011;12865;51.934;10.330;2023-02-28T08:09:03;49.85;;;26.38;;
24761;SDS011;12865;51.934;10.330;2023-02-28T08:11:49;27.75;;;16.63;;
24761;SDS011;12865;51.934;10.330;2023-02-28T08:14:35;21.75;;;14.93;;
24761;SDS011;12865;51.934;10.330;2023-02-28T08:17:21;11.27;;;9.48;;
24761;SDS011;12865;51.934;10.330;2023-02-28T08:20:07;5.28;;;4.32;;
24761;SDS011;12865;51.934;10.330;2023-02-28T08:22:53;7.28;;;3.88;;
24761;SDS011;12865;51.934;10.330;2023-02-28T08:25:39;5.93;;;3.95;;
24761;SDS011;12865;51.934;10.330;2023-02-28T08:28:25;4.50;;;3.60;;
24761;SDS011;12865;51.934;10.330;2023-02-28T08:31:11;4.20;;;3.65;;
24761;SDS011;12865;51.934;10.330;2023-02-28T08:33:59;3.70;;;3.33;;
24761;SDS011;12865;51.934;10.330;2023-02-28T08:36:45;5.03;;;3.88;;
24761;SDS011;12865;51.934;10.330;2023-02-28T08:39:33;5.63;;;3.88;;
24761;SDS011;12865;51.934;10.330;2023-02-28T08:42:20;4.60;;;3.58;;
24761;SDS011;12865;51.934;10.330;2023-02-28T08:45:06;6.90;;;4.05;;
24761;SDS011;12865;51.934;10.330;2023-02-28T08:47:53;5.60;;;3.67;;
24761;SDS011;12865;51.934;10.330;2023-02-28T08:50:40;5.07;;;3.87;;
24761;SDS011;12865;51.934;10.330;2023-02-28T08:53:26;4.28;;;3.60;;
24761;SDS011;12865;51.934;10.330;2023-02-28T08:56:12;4.72;;;4.00;;
24761;SDS011;12865;51.934;10.330;2023-02-28T08:58:59;7.47;;;4.45;;
24761;SDS011;12865;51.934;10.330;2023-02-28T09:01:44;4.90;;;3.97;;
24761;SDS011;12865;51.934;10.330;2023-02-28T09:04:30;5.45;;;4.00;;
24761;SDS011;12865;51.934;10.330;2023-02-28T09:07:16;6.03;;;3.70;;
24761;SDS011;12865;51.934;10.330;2023-02-28T09:10:02;5.88;;;4.18;;
24761;SDS011;12865;51.934;10.330;2023-02-28T09:12:47;5.28;;;3.97;;
24761;SDS011;12865;51.934;10.330;2023-02-28T09:15:33;4.90;;;4.13;;
24761;SDS011;12865;51.934;10.330;2023-02-28T09:18:19;7.47;;;4.43;;
24761;SDS011;12865;51.934;10.330;2023-02-28T09:21:06;6.15;;;4.00;;
24761;SDS011;12865;51.934;10.330;2023-02-28T09:23:54;5.88;;;4.03;;
24761;SDS011;12865;51.934;10.330;2023-02-28T09:26:40;5.18;;;3.88;;
24761;SDS011;12865;51.934;10.330;2023-02-28T09:29:25;5.07;;;4.05;;
24761;SDS011;12865;51.934;10.330;2023-02-28T09:32:12;5.28;;;4.78;;
24761;SDS011;12865;51.934;10.330;2023-02-28T09:34:57;4.78;;;4.15;;
24761;SDS011;12865;51.934;10.330;2023-02-28T09:37:43;6.10;;;5.30;;
24761;SDS011;12865;51.934;10.330;2023-02-28T09:40:29;10.70;;;5.85;;
24761;SDS011;12865;51.934;10.330;2023-02-28T09:43:16;10.50;;;5.13;;
24761;SDS011;12865;51.934;10.330;2023-02-28T09:46:08;7.35;;;4.15;;
24761;SDS011;12865;51.934;10.330;2023-02-28T09:49:07;4.50;;;3.90;;
24761;SDS011;12865;51.934;10.330;2023-02-28T09:52:01;3.90;;;3.35;;
24761;SDS011;12865;51.934;10.330;2023-02-28T09:54:49;4.07;;;3.40;;
24761;SDS011;12865;51.934;10.330;2023-02-28T09:57:36;4.40;;;3.67;;
24761;SDS011;12865;51.934;10.330;2023-02-28T10:00:36;7.60;;;4.30;;
24761;SDS011;12865;51.934;10.330;2023-02-28T10:03:28;5.63;;;4.03;;
24761;SDS011;12865;51.934;10.330;2023-02-28T10:06:18;5.72;;;4.32;;
24761;SDS011;12865;51.934;10.330;2023-02-28T10:09:24;6.55;;;3.38;;
24761;SDS011;12865;51.934;10.330;2023-02-28T10:12:17;3.25;;;2.35;;
24761;SDS011;12865;51.934;10.330;2023-02-28T10:15:05;3.20;;;2.67;;
24761;SDS011;12865;51.934;10.330;2023-02-28T10:17:54;3.28;;;2.83;;
24761;SDS011;12865;51.934;10.330;2023-02-28T10:20:47;3.78;;;3.00;;
24761;SDS011;12865;51.934;10.330;2023-02-28T10:23:35;2.38;;;2.08;;
24761;SDS011;12865;51.934;10.330;2023-02-28T10:26:22;4.00;;;2.53;;
24761;SDS011;12865;51.934;10.330;2023-02-28T10:29:10;2.40;;;2.20;;
24761;SDS011;12865;51.934;10.330;2023-02-28T10:31:56;4.28;;;2.60;;
24761;SDS011;12865;51.934;10.330;2023-02-28T10:34:42;3.17;;;2.88;;
24761;SDS011;12865;51.934;10.330;2023-02-28T10:37:28;4.05;;;2.65;;
24761;SDS011;12865;51.934;10.330;2023-02-28T10:43:03;2.75;;;2.20;;
24761;SDS011;12865;51.934;10.330;2023-02-28T10:45:59;2.45;;;2.25;;
24761;SDS011;12865;51.934;10.330;2023-02-28T10:48:50;3.70;;;2.97;;
24761;SDS011;12865;51.934;10.330;2023-02-28T10:51:46;3.73;;;2.90;;
24761;SDS011;12865;51.934;10.330;2023-02-28T10:54:39;2.80;;;2.50;;
24761;SDS011;12865;51.934;10.330;2023-02-28T10:57:26;2.60;;;2.40;;
24761;SDS011;12865;51.934;10.330;2023-02-28T11:03:32;4.15;;;2.83;;
24761;SDS011;12865;51.934;10.330;2023-02-28T11:06:21;3.08;;;2.42;;
24761;SDS011;12865;51.934;10.330;2023-02-28T11:09:25;3.13;;;2.75;;
24761;SDS011;12865;51.934;10.330;2023-02-28T11:12:26;3.70;;;2.40;;
24761;SDS011;12865;51.934;10.330;2023-02-28T11:18:23;2.58;;;2.38;;
24761;SDS011;12865;51.934;10.330;2023-02-28T11:21:19;4.32;;;3.55;;
24761;SDS011;12865;51.934;10.330;2023-02-28T11:27:39;4.55;;;3.03;;
24761;SDS011;12865;51.934;10.330;2023-02-28T11:30:40;3.85;;;2.83;;
24761;SDS011;12865;51.934;10.330;2023-02-28T11:33:43;14.38;;;8.80;;
24761;SDS011;12865;51.934;10.330;2023-02-28T11:36:35;5.63;;;4.03;;
24761;SDS011;12865;51.934;10.330;2023-02-28T11:39:21;6.43;;;4.20;;
24761;SDS011;12865;51.934;10.330;2023-02-28T11:42:19;3.97;;;3.20;;
24761;SDS011;12865;51.934;10.330;2023-02-28T11:45:45;2.85;;;2.63;;
24761;SDS011;12865;51.934;10.330;2023-02-28T11:51:34;4.45;;;2.92;;
24761;SDS011;12865;51.934;10.330;2023-02-28T11:54:29;4.10;;;3.10;;
24761;SDS011;12865;51.934;10.330;2023-02-28T12:06:42;4.07;;;3.05;;
24761;SDS011;12865;51.934;10.330;2023-02-28T12:18:51;6.43;;;3.90;;
24761;SDS011;12865;51.934;10.330;2023-02-28T12:21:48;5.72;;;3.70;;
24761;SDS011;12865;51.934;10.330;2023-02-28T12:24:55;4.07;;;3.25;;
24761;SDS011;12865;51.934;10.330;2023-02-28T12:27:59;5.30;;;3.33;;
24761;SDS011;12865;51.934;10.330;2023-02-28T12:30:56;4.30;;;3.90;;
24761;SDS011;12865;51.934;10.330;2023-02-28T12:33:53;6.18;;;4.20;;
24761;SDS011;12865;51.934;10.330;2023-02-28T12:36:45;4.90;;;3.90;;
24761;SDS011;12865;51.934;10.330;2023-02-28T12:39:34;7.07;;;3.97;;
24761;SDS011;12865;51.934;10.330;2023-02-28T12:44:52;4.40;;;4.00;;
24761;SDS011;12865;51.934;10.330;2023-02-28T12:47:42;5.40;;;4.15;;
24761;SDS011;12865;51.934;10.330;2023-02-28T12:50:31;4.30;;;3.80;;
24761;SDS011;12865;51.934;10.330;2023-02-28T12:53:22;4.30;;;3.47;;
24761;SDS011;12865;51.934;10.330;2023-02-28T12:56:31;4.72;;;3.53;;
24761;SDS011;12865;51.934;10.330;2023-02-28T13:11:50;4.05;;;3.65;;
24761;SDS011;12865;51.934;10.330;2023-02-28T13:14:37;5.00;;;3.60;;
24761;SDS011;12865;51.934;10.330;2023-02-28T13:17:23;6.47;;;4.25;;
24761;SDS011;12865;51.934;10.330;2023-02-28T13:20:18;4.55;;;3.75;;
24761;SDS011;12865;51.934;10.330;2023-02-28T13:23:35;4.15;;;3.75;;
24761;SDS011;12865;51.934;10.330;2023-02-28T13:29:27;6.65;;;3.80;;
24761;SDS011;12865;51.934;10.330;2023-02-28T13:32:19;4.97;;;4.05;;
24761;SDS011;12865;51.934;10.330;2023-02-28T13:35:12;4.65;;;4.10;;
24761;SDS011;12865;51.934;10.330;2023-02-28T13:38:09;4.83;;;3.43;;
24761;SDS011;12865;51.934;10.330;2023-02-28T13:41:47;5.97;;;4.00;;
24761;SDS011;12865;51.934;10.330;2023-02-28T13:44:25;4.32;;;4.03;;
24761;SDS011;12865;51.934;10.330;2023-02-28T13:47:19;7.50;;;4.85;;
24761;SDS011;12865;51.934;10.330;2023-02-28T13:50:24;8.20;;;4.43;;
24761;SDS011;12865;51.934;10.330;2023-02-28T13:56:23;5.53;;;4.40;;
24761;SDS011;12865;51.934;10.330;2023-02-28T13:59:22;5.32;;;4.82;;
24761;SDS011;12865;51.934;10.330;2023-02-28T14:02:33;4.65;;;4.25;;
24761;SDS011;12865;51.934;10.330;2023-02-28T14:05:22;5.00;;;4.28;;
24761;SDS011;12865;51.934;10.330;2023-02-28T14:08:15;5.15;;;4.65;;
24761;SDS011;12865;51.934;10.330;2023-02-28T14:11:08;4.72;;;3.85;;
24761;SDS011;12865;51.934;10.330;2023-02-28T14:14:09;5.38;;;4.20;;
24761;SDS011;12865;51.934;10.330;2023-02-28T14:17:16;5.70;;;4.15;;
24761;SDS011;12865;51.934;10.330;2023-02-28T14:20:02;4.45;;;4.05;;
24761;SDS011;12865;51.934;10.330;2023-02-28T14:22:54;4.78;;;4.35;;
24761;SDS011;12865;51.934;10.330;2023-02-28T14:26:47;5.35;;;4.05;;
24761;SDS011;12865;51.934;10.330;2023-02-28T14:32:47;5.47;;;4.18;;
24761;SDS011;12865;51.934;10.330;2023-02-28T14:41:35;4.43;;;3.65;;
24761;SDS011;12865;51.934;10.330;2023-02-28T14:47:13;4.57;;;4.18;;
24761;SDS011;12865;51.934;10.330;2023-02-28T14:50:01;6.07;;;3.85;;
24761;SDS011;12865;51.934;10.330;2023-02-28T14:52:52;5.13;;;4.43;;
24761;SDS011;12865;51.934;10.330;2023-02-28T14:55:43;4.35;;;3.95;;
24761;SDS011;12865;51.934;10.330;2023-02-28T14:58:31;4.95;;;3.90;;
24761;SDS011;12865;51.934;10.330;2023-02-28T15:01:19;5.10;;;3.97;;
24761;SDS011;12865;51.934;10.330;2023-02-28T15:04:11;4.57;;;4.10;;
24761;SDS011;12865;51.934;10.330;2023-02-28T15:07:12;4.78;;;3.92;;
24761;SDS011;12865;51.934;10.330;2023-02-28T15:10:06;6.25;;;4.03;;
24761;SDS011;12865;51.934;10.330;2023-02-28T15:13:06;4.68;;;4.10;;
24761;SDS011;12865;51.934;10.330;2023-02-28T15:15:57;4.38;;;3.90;;
24761;SDS011;12865;51.934;10.330;2023-02-28T15:21:39;6.07;;;4.60;;
24761;SDS011;12865;51.934;10.330;2023-02-28T15:27:27;5.30;;;4.80;;
24761;SDS011;12865;51.934;10.330;2023-02-28T15:30:21;5.90;;;5.05;;
24761;SDS011;12865;51.934;10.330;2023-02-28T15:36:10;5.63;;;5.00;;
24761;SDS011;12865;51.934;10.330;2023-02-28T15:38:59;8.77;;;5.63;;
24761;SDS011;12865;51.934;10.330;2023-02-28T15:41:45;5.70;;;5.15;;
24761;SDS011;12865;51.934;10.330;2023-02-28T15:44:32;6.78;;;5.47;;
24761;SDS011;12865;51.934;10.330;2023-02-28T15:47:20;5.10;;;4.60;;
24761;SDS011;12865;51.934;10.330;2023-02-28T15:50:10;7.53;;;5.20;;
24761;SDS011;12865;51.934;10.330;2023-02-28T15:52:59;6.30;;;5.50;;
24761;SDS011;12865;51.934;10.330;2023-02-28T15:55:51;11.50;;;10.32;;
24761;SDS011;12865;51.934;10.330;2023-02-28T15:58:39;15.75;;;14.32;;
24761;SDS011;12865;51.934;10.330;2023-02-28T16:01:28;8.13;;;7.32;;
24761;SDS011;12865;51.934;10.330;2023-02-28T16:04:16;7.47;;;6.78;;
24761;SDS011;12865;51.934;10.330;2023-02-28T16:07:04;7.85;;;7.03;;
24761;SDS011;12865;51.934;10.330;2023-02-28T16:09:57;8.02;;;6.70;;
24761;SDS011;12865;51.934;10.330;2023-02-28T16:12:43;9.90;;;8.98;;
24761;SDS011;12865;51.934;10.330;2023-02-28T16:15:30;8.73;;;7.85;;
24761;SDS011;12865;51.934;10.330;2023-02-28T16:18:20;7.07;;;5.68;;
24761;SDS011;12865;51.934;10.330;2023-02-28T16:21:06;10.18;;;9.18;;
24761;SDS011;12865;51.934;10.330;2023-02-28T16:23:51;8.35;;;7.18;;
24761;SDS011;12865;51.934;10.330;2023-02-28T16:26:38;7.93;;;6.35;;
24761;SDS011;12865;51.934;10.330;2023-02-28T16:29:33;12.37;;;11.17;;
24761;SDS011;12865;51.934;10.330;2023-02-28T16:32:21;31.95;;;28.23;;
24761;SDS011;12865;51.934;10.330;2023-02-28T16:35:09;11.63;;;10.43;;
24761;SDS011;12865;51.934;10.330;2023-02-28T16:37:55;9.07;;;8.27;;
24761;SDS011;12865;51.934;10.330;2023-02-28T16:40:41;9.93;;;9.02;;
24761;SDS011;12865;51.934;10.330;2023-02-28T16:43:27;8.48;;;7.50;;
24761;SDS011;12865;51.934;10.330;2023-02-28T16:46:13;11.25;;;8.18;;
24761;SDS011;12865;51.934;10.330;2023-02-28T16:49:00;10.75;;;9.15;;
24761;SDS011;12865;51.934;10.330;2023-02-28T16:51:46;11.32;;;10.23;;
24761;SDS011;12865;51.934;10.330;2023-02-28T16:54:31;38.30;;;30.63;;
24761;SDS011;12865;51.934;10.330;2023-02-28T16:57:19;49.17;;;37.75;;
24761;SDS011;12865;51.934;10.330;2023-02-28T17:00:07;15.00;;;11.20;;
24761;SDS011;12865;51.934;10.330;2023-02-28T17:02:56;29.63;;;24.50;;
24761;SDS011;12865;51.934;10.330;2023-02-28T17:05:42;20.90;;;17.48;;
24761;SDS011;12865;51.934;10.330;2023-02-28T17:08:28;16.88;;;13.82;;
24761;SDS011;12865;51.934;10.330;2023-02-28T17:11:15;11.30;;;9.88;;
24761;SDS011;12865;51.934;10.330;2023-02-28T17:14:01;14.30;;;10.70;;
24761;SDS011;12865;51.934;10.330;2023-02-28T17:16:46;15.13;;;11.23;;
24761;SDS011;12865;51.934;10.330;2023-02-28T17:19:32;15.13;;;11.18;;
24761;SDS011;12865;51.934;10.330;2023-02-28T17:22:19;17.45;;;10.93;;
24761;SDS011;12865;51.934;10.330;2023-02-28T17:25:05;15.90;;;10.65;;
24761;SDS011;12865;51.934;10.330;2023-02-28T17:27:53;13.63;;;9.80;;
24761;SDS011;12865;51.934;10.330;2023-02-28T17:30:38;15.68;;;10.43;;
24761;SDS011;12865;51.934;10.330;2023-02-28T17:33:25;15.20;;;9.93;;
24761;SDS011;12865;51.934;10.330;2023-02-28T17:36:15;15.30;;;10.02;;
24761;SDS011;12865;51.934;10.330;2023-02-28T17:39:03;12.25;;;9.60;;
24761;SDS011;12865;51.934;10.330;2023-02-28T17:41:54;12.23;;;9.40;;
24761;SDS011;12865;51.934;10.330;2023-02-28T17:44:40;11.98;;;9.80;;
24761;SDS011;12865;51.934;10.330;2023-02-28T17:47:26;17.90;;;13.02;;
24761;SDS011;12865;51.934;10.330;2023-02-28T17:50:16;19.38;;;13.60;;
24761;SDS011;12865;51.934;10.330;2023-02-28T17:53:03;20.90;;;13.07;;
24761;SDS011;12865;51.934;10.330;2023-02-28T17:55:50;21.75;;;14.10;;
24761;SDS011;12865;51.934;10.330;2023-02-28T17:58:35;19.70;;;13.30;;
24761;SDS011;12865;51.934;10.330;2023-02-28T18:01:22;18.55;;;15.15;;
24761;SDS011;12865;51.934;10.330;2023-02-28T18:04:10;11.02;;;9.88;;
24761;SDS011;12865;51.934;10.330;2023-02-28T18:06:56;18.55;;;13.85;;
24761;SDS011;12865;51.934;10.330;2023-02-28T18:09:45;19.08;;;13.00;;
24761;SDS011;12865;51.934;10.330;2023-02-28T18:12:30;16.35;;;13.18;;
24761;SDS011;12865;51.934;10.330;2023-02-28T18:15:17;17.80;;;13.43;;
24761;SDS011;12865;51.934;10.330;2023-02-28T18:18:05;14.13;;;11.98;;
24761;SDS011;12865;51.934;10.330;2023-02-28T18:20:51;16.63;;;12.15;;
24761;SDS011;12865;51.934;10.330;2023-02-28T18:23:39;14.43;;;11.68;;
24761;SDS011;12865;51.934;10.330;2023-02-28T18:26:36;13.00;;;9.30;;
24761;SDS011;12865;51.934;10.330;2023-02-28T18:29:24;16.63;;;11.45;;
24761;SDS011;12865;51.934;10.330;2023-02-28T18:32:11;14.63;;;8.60;;
24761;SDS011;12865;51.934;10.330;2023-02-28T18:34:57;14.80;;;9.35;;
24761;SDS011;12865;51.934;10.330;2023-02-28T18:37:42;11.05;;;8.63;;
24761;SDS011;12865;51.934;10.330;2023-02-28T18:40:28;12.38;;;8.77;;